METAR Data
IDs: Format: Raw Decoded Include TAF

Data at: 0634 UTC 03 Aug 2021

SAAR 030600Z 05003KT CAVOK 04/02 Q1027